createdAt,value
2022-11-13T00:08:56.625Z,18.43
2022-11-13T00:18:58.141Z,17.50
2022-11-13T00:29:01.633Z,19.17
2022-11-13T00:39:03.625Z,18.13
2022-11-13T00:49:05.266Z,17.10
2022-11-13T00:59:06.869Z,22.23
2022-11-13T01:09:09.289Z,20.30
2022-11-13T01:19:13.697Z,20.43
2022-11-13T01:29:15.218Z,23.38
2022-11-13T01:39:16.703Z,19.27
2022-11-13T01:49:24.763Z,21.30
2022-11-13T01:59:32.309Z,19.77
2022-11-13T02:09:37.869Z,21.77
2022-11-13T02:19:46.867Z,20.08
2022-11-13T02:29:48.468Z,14.73
2022-11-13T02:39:50.519Z,15.93
2022-11-13T02:49:52.125Z,18.67
2022-11-13T02:59:53.637Z,13.77
2022-11-13T03:09:55.125Z,18.17
2022-11-13T03:19:56.613Z,17.00
2022-11-13T03:29:58.134Z,16.50
2022-11-13T03:39:59.628Z,16.80
2022-11-13T03:50:01.329Z,17.03
2022-11-13T04:00:07.266Z,15.95
2022-11-13T04:10:08.965Z,21.20
2022-11-13T04:20:10.795Z,23.57
2022-11-13T04:30:12.447Z,21.60
2022-11-13T04:40:14.085Z,23.00
2022-11-13T04:50:16.433Z,21.55
2022-11-13T05:00:18.156Z,22.80
2022-11-13T05:10:19.647Z,22.00
2022-11-13T05:20:21.188Z,21.50
2022-11-13T05:30:22.808Z,23.77
2022-11-13T05:40:24.288Z,21.83
2022-11-13T05:50:25.779Z,23.43
2022-11-13T06:00:27.282Z,20.67
2022-11-13T06:10:28.760Z,23.57
2022-11-13T06:20:30.290Z,23.07
2022-11-13T06:30:31.808Z,26.38
2022-11-13T06:40:33.326Z,27.27
2022-11-13T06:50:34.819Z,26.60
2022-11-13T07:00:37.636Z,29.87
2022-11-13T07:10:42.213Z,30.27
2022-11-13T07:20:43.865Z,31.05
2022-11-13T07:30:45.364Z,32.47
2022-11-13T07:40:46.887Z,27.57
2022-11-13T07:50:49.887Z,30.87
2022-11-13T08:00:51.368Z,28.20
2022-11-13T08:10:52.873Z,26.30
2022-11-13T08:20:54.614Z,23.13
2022-11-13T08:30:56.122Z,24.17
2022-11-13T08:41:00.511Z,25.77
2022-11-13T08:51:04.788Z,21.33
2022-11-13T09:01:06.285Z,20.70
2022-11-13T09:11:07.813Z,18.93
2022-11-13T09:21:09.307Z,16.23
2022-11-13T09:31:10.860Z,16.63
2022-11-13T09:41:21.267Z,14.70
2022-11-13T09:51:29.358Z,11.85
2022-11-13T10:01:46.194Z,13.10
2022-11-13T10:12:00.903Z,14.30
2022-11-13T10:22:32.263Z,12.77
2022-11-13T10:32:34.472Z,14.33
2022-11-13T10:42:42.873Z,14.18
2022-11-13T10:52:47.565Z,13.97
2022-11-13T11:02:52.412Z,15.53
2022-11-13T11:13:10.144Z,16.80
2022-11-13T11:23:33.164Z,18.53
2022-11-13T11:33:54.648Z,15.25
2022-11-13T11:44:29.386Z,16.93
2022-11-13T11:54:32.092Z,15.47
2022-11-13T12:04:47.811Z,14.87
2022-11-13T12:15:16.749Z,14.53
2022-11-13T12:25:52.107Z,16.60
2022-11-13T12:35:54.018Z,16.33
2022-11-13T12:46:05.434Z,15.57
2022-11-13T12:56:07.275Z,14.97
2022-11-13T13:06:41.077Z,18.00
2022-11-13T13:16:42.812Z,15.88
2022-11-13T13:26:46.761Z,18.27
2022-11-13T13:37:27.339Z,15.73
2022-11-13T13:47:38.149Z,13.27
2022-11-13T13:57:42.068Z,16.77
2022-11-13T14:07:46.782Z,15.05
2022-11-13T14:17:48.778Z,13.97
2022-11-13T14:27:51.528Z,16.97
2022-11-13T14:37:54.830Z,16.67
2022-11-13T14:48:18.670Z,19.87
2022-11-13T14:58:35.048Z,20.02
2022-11-13T15:08:36.729Z,18.67
2022-11-13T15:18:38.263Z,17.73
2022-11-13T15:28:39.811Z,17.90
2022-11-13T15:38:41.335Z,21.07
2022-11-13T15:48:43.578Z,20.15
2022-11-13T15:58:45.083Z,19.30
2022-11-13T16:08:47.537Z,18.33
2022-11-13T16:18:49.645Z,19.53
2022-11-13T16:29:12.766Z,19.00
2022-11-13T16:39:16.489Z,21.90
2022-11-13T16:49:18.010Z,23.33
2022-11-13T16:59:19.556Z,19.33
2022-11-13T17:09:21.066Z,21.37
2022-11-13T17:19:22.550Z,26.37
2022-11-13T17:29:24.048Z,24.27
2022-11-13T17:39:25.557Z,23.37
2022-11-13T17:49:27.045Z,26.47
2022-11-13T17:59:28.584Z,27.87
2022-11-13T18:09:30.091Z,26.47
2022-11-13T18:19:31.580Z,28.25
2022-11-13T18:29:33.885Z,31.00
2022-11-13T18:39:35.406Z,32.80
2022-11-13T18:49:36.926Z,32.93
2022-11-13T18:59:38.438Z,29.37
2022-11-13T19:09:39.916Z,33.20
2022-11-13T19:19:41.417Z,36.00
2022-11-13T19:29:43.026Z,37.77
2022-11-13T19:39:44.520Z,36.63
2022-11-13T19:49:46.028Z,38.20
2022-11-13T19:59:47.524Z,38.38
2022-11-13T20:09:49.143Z,39.50
2022-11-13T20:19:50.639Z,39.77
2022-11-13T20:29:52.165Z,41.50
2022-11-13T20:39:53.661Z,41.70
2022-11-13T20:49:55.177Z,39.83
2022-11-13T20:59:56.665Z,40.53
2022-11-13T21:09:58.162Z,41.97
2022-11-13T21:19:59.654Z,46.33
2022-11-13T21:30:01.136Z,44.60
2022-11-13T21:40:02.667Z,42.05
2022-11-13T21:50:05.595Z,45.07
2022-11-13T22:00:07.511Z,41.93
2022-11-13T22:10:09.077Z,41.00
2022-11-13T22:20:10.959Z,44.13
2022-11-13T22:30:12.611Z,39.40
2022-11-13T22:40:14.714Z,40.20
2022-11-13T22:50:16.302Z,39.03
2022-11-13T23:00:17.994Z,40.33
2022-11-13T23:10:19.515Z,40.23
2022-11-13T23:20:21.058Z,40.70
2022-11-13T23:30:24.786Z,38.40
2022-11-13T23:40:26.398Z,38.17
2022-11-13T23:50:28.367Z,38.90
